sensor_id;sensor_type;location;lat;lon;timestamp;temperature;humidity
9403;DHT22;4741;49.834;10.740;2023-07-28T02:13:13;16.20;99.90
9403;DHT22;4741;49.834;10.740;2023-07-28T02:15:40;16.20;99.90
9403;DHT22;4741;49.834;10.740;2023-07-28T02:18:07;16.30;99.90
9403;DHT22;4741;49.834;10.740;2023-07-28T02:20:34;16.20;99.90
9403;DHT22;4741;49.834;10.740;2023-07-28T02:23:02;16.10;99.90
9403;DHT22;4741;49.834;10.740;2023-07-28T02:25:29;16.80;99.90
9403;DHT22;4741;49.834;10.740;2023-07-28T02:27:56;17.20;99.90
9403;DHT22;4741;49.834;10.740;2023-07-28T02:30:23;16.10;99.90
9403;DHT22;4741;49.834;10.740;2023-07-28T02:32:49;16.10;99.90
9403;DHT22;4741;49.834;10.740;2023-07-28T02:35:16;15.90;99.90
9403;DHT22;4741;49.834;10.740;2023-07-28T02:37:46;16.00;99.90
9403;DHT22;4741;49.834;10.740;2023-07-28T02:40:13;17.10;99.90
9403;DHT22;4741;49.834;10.740;2023-07-28T02:42:40;16.20;99.90
9403;DHT22;4741;49.834;10.740;2023-07-28T02:45:07;16.80;99.90
9403;DHT22;4741;49.834;10.740;2023-07-28T02:47:34;16.20;99.90
9403;DHT22;4741;49.834;10.740;2023-07-28T02:50:00;16.20;99.90
9403;DHT22;4741;49.834;10.740;2023-07-28T02:52:27;17.20;99.90
9403;DHT22;4741;49.834;10.740;2023-07-28T02:54:55;17.20;99.90
9403;DHT22;4741;49.834;10.740;2023-07-28T02:57:21;17.30;99.90
9403;DHT22;4741;49.834;10.740;2023-07-28T02:59:48;17.00;99.90
9403;DHT22;4741;49.834;10.740;2023-07-28T03:02:15;16.30;99.90
9403;DHT22;4741;49.834;10.740;2023-07-28T03:04:42;17.10;99.90
9403;DHT22;4741;49.834;10.740;2023-07-28T03:07:08;16.90;99.90
9403;DHT22;4741;49.834;10.740;2023-07-28T03:09:35;16.30;99.90
9403;DHT22;4741;49.834;10.740;2023-07-28T03:12:02;15.90;99.90
9403;DHT22;4741;49.834;10.740;2023-07-28T03:14:29;16.30;99.90
9403;DHT22;4741;49.834;10.740;2023-07-28T03:16:56;16.20;99.90
9403;DHT22;4741;49.834;10.740;2023-07-28T03:19:23;16.30;99.90
9403;DHT22;4741;49.834;10.740;2023-07-28T03:21:49;16.30;99.90
9403;DHT22;4741;49.834;10.740;2023-07-28T03:24:16;16.30;99.90
9403;DHT22;4741;49.834;10.740;2023-07-28T03:26:43;16.20;99.90
9403;DHT22;4741;49.834;10.740;2023-07-28T03:29:10;16.30;99.90
9403;DHT22;4741;49.834;10.740;2023-07-28T03:31:36;16.20;99.90
9403;DHT22;4741;49.834;10.740;2023-07-28T03:34:03;16.30;99.90
9403;DHT22;4741;49.834;10.740;2023-07-28T03:36:30;16.40;99.90
9403;DHT22;4741;49.834;10.740;2023-07-28T03:38:57;16.70;99.90
9403;DHT22;4741;49.834;10.740;2023-07-28T03:41:23;16.30;99.90
9403;DHT22;4741;49.834;10.740;2023-07-28T03:43:50;16.30;99.90
9403;DHT22;4741;49.834;10.740;2023-07-28T03:46:17;16.20;99.90
9403;DHT22;4741;49.834;10.740;2023-07-28T03:48:44;16.20;99.90
9403;DHT22;4741;49.834;10.740;2023-07-28T03:51:10;16.60;99.90
9403;DHT22;4741;49.834;10.740;2023-07-28T03:53:37;17.50;99.90
9403;DHT22;4741;49.834;10.740;2023-07-28T03:56:04;16.20;99.90
9403;DHT22;4741;49.834;10.740;2023-07-28T03:58:31;16.30;99.90
9403;DHT22;4741;49.834;10.740;2023-07-28T04:00:58;16.20;99.90
9403;DHT22;4741;49.834;10.740;2023-07-28T04:03:25;16.30;99.90
9403;DHT22;4741;49.834;10.740;2023-07-28T04:05:51;16.90;99.90
9403;DHT22;4741;49.834;10.740;2023-07-28T04:08:18;15.90;99.90
9403;DHT22;4741;49.834;10.740;2023-07-28T04:10:45;16.70;99.90
9403;DHT22;4741;49.834;10.740;2023-07-28T04:13:12;16.10;99.90
9403;DHT22;4741;49.834;10.740;2023-07-28T04:15:38;16.20;99.90
9403;DHT22;4741;49.834;10.740;2023-07-28T04:18:05;16.90;99.90
9403;DHT22;4741;49.834;10.740;2023-07-28T04:20:32;16.90;99.90
9403;DHT22;4741;49.834;10.740;2023-07-28T04:22:59;17.20;99.90
9403;DHT22;4741;49.834;10.740;2023-07-28T04:25:26;16.40;99.90
9403;DHT22;4741;49.834;10.740;2023-07-28T11:05:48;20.10;99.90
9403;DHT22;4741;49.834;10.740;2023-07-28T11:08:16;22.40;99.90
9403;DHT22;4741;49.834;10.740;2023-07-28T13:45:06;23.00;99.90
9403;DHT22;4741;49.834;10.740;2023-07-28T13:47:34;23.20;99.90
9403;DHT22;4741;49.834;10.740;2023-07-28T13:50:01;23.20;99.90
9403;DHT22;4741;49.834;10.740;2023-07-28T13:52:27;23.20;99.90
9403;DHT22;4741;49.834;10.740;2023-07-28T13:54:54;23.20;99.90
9403;DHT22;4741;49.834;10.740;2023-07-28T13:57:24;23.20;99.90
9403;DHT22;4741;49.834;10.740;2023-07-28T13:59:51;23.20;99.90
9403;DHT22;4741;49.834;10.740;2023-07-28T14:02:17;23.80;99.90
9403;DHT22;4741;49.834;10.740;2023-07-28T14:04:47;24.40;99.90
9403;DHT22;4741;49.834;10.740;2023-07-28T14:07:14;24.40;99.90
9403;DHT22;4741;49.834;10.740;2023-07-28T14:09:41;25.00;99.90
9403;DHT22;4741;49.834;10.740;2023-07-28T14:12:08;25.50;99.90
9403;DHT22;4741;49.834;10.740;2023-07-28T14:14:34;25.90;99.90
9403;DHT22;4741;49.834;10.740;2023-07-28T14:17:01;25.40;99.90
9403;DHT22;4741;49.834;10.740;2023-07-28T14:19:28;24.90;99.90
9403;DHT22;4741;49.834;10.740;2023-07-28T14:21:54;25.90;99.90
9403;DHT22;4741;49.834;10.740;2023-07-28T14:24:21;26.30;99.90
9403;DHT22;4741;49.834;10.740;2023-07-28T14:26:48;26.20;99.90
9403;DHT22;4741;49.834;10.740;2023-07-28T23:22:29;17.50;99.90
9403;DHT22;4741;49.834;10.740;2023-07-28T23:24:56;17.60;99.90
9403;DHT22;4741;49.834;10.740;2023-07-28T23:27:22;17.50;99.90
9403;DHT22;4741;49.834;10.740;2023-07-28T23:29:49;17.60;99.90
9403;DHT22;4741;49.834;10.740;2023-07-28T23:32:16;17.00;99.90
9403;DHT22;4741;49.834;10.740;2023-07-28T23:34:43;17.60;99.90
9403;DHT22;4741;49.834;10.740;2023-07-28T23:37:10;17.60;99.90
9403;DHT22;4741;49.834;10.740;2023-07-28T23:39:37;17.60;99.90
9403;DHT22;4741;49.834;10.740;2023-07-28T23:42:03;17.80;99.90
9403;DHT22;4741;49.834;10.740;2023-07-28T23:44:30;17.60;99.90
9403;DHT22;4741;49.834;10.740;2023-07-28T23:46:57;17.60;99.90
9403;DHT22;4741;49.834;10.740;2023-07-28T23:49:23;18.20;99.90
9403;DHT22;4741;49.834;10.740;2023-07-28T23:51:50;17.60;99.90
9403;DHT22;4741;49.834;10.740;2023-07-28T23:54:17;17.60;99.90
9403;DHT22;4741;49.834;10.740;2023-07-28T23:56:43;17.70;99.90
9403;DHT22;4741;49.834;10.740;2023-07-28T23:59:10;18.40;99.90
